Isla Diego Ramirez, Chile
Current Conditions -  °F | °C
As of 2:00 PM on Wednesday 26 Nov 2014 (Local Time) from SAWH Reporting Station
Broken Clouds Broken Clouds  
Wind Chill: 36°   Ceiling: 4000
Heat Index: 45°   Visibility: 6mi
Dew Point: 37°   Wind: 23mph
Humidity: 76%   Direction: 250°WSW
Pressure: 29.56"   Gusts: NA
Location:  56.6°S, 68.72°W
Report Text: SAWH 261800Z 25020KT 9999 BKN040 BKN10007/03 Q1001
Loading
Personal Weather Stations






























Interactive Weather Map New forecast layout! Learn more

10-Day Weather Forecast

Advertisements
Track Severe Weather on mobile